Latest Weather Observations for Jandakot

IDW60901

Issued at 8:01 pm WST Monday 19 August 2019 (issued every 10 minutes, with the page automatically refreshed every 10 minutes)

About weather observations | Map of Perth area stations | Latest observations for Perth area | Other Formats
Station Details ID: 009172 Name: JANDAKOT AERO Lat: -32.10 Lon: 115.88 Height: 30.0 m
Data from the previous 72 hours. | See also: Recent months at Jandakot
Date/Time
WST
Temp
°C
App
Temp
°C
Dew
Point
°C
Rel
Hum
%
Delta-T
°C
Wind Press
QNH
hPa
Press
MSL
hPa
Rain since
9am
mm
Dir  Spd
km/h
Gust
km/h
Spd
kts
Gust
kts
19/08:00pm 11.5 9.0 8.2 80 1.6 S 11 13 6 7 1035.4 1035.4 0.0
19/07:30pm 12.4 10.3 8.3 76 2.0 S 9 11 5 6 1035.1 1035.1 0.0
19/07:00pm 13.1 10.7 8.6 74 2.2 S 11 13 6 7 1034.9 1034.9 0.0
19/06:30pm 14.0 11.6 8.6 70 2.7 SSW 11 13 6 7 1034.6 1034.6 0.0
19/06:00pm 14.6 11.8 8.5 67 3.0 SW 13 15 7 8 1034.2 1034.3 0.0
19/05:30pm 15.9 13.0 8.2 60 3.9 SW 13 17 7 9 1033.7 1033.8 0.0
19/05:00pm 17.4 15.2 8.0 54 4.7 WSW 9 13 5 7 1033.5 1033.6 0.0
19/04:30pm 19.1 16.2 4.5 38 7.0 ENE 9 15 5 8 1033.3 1033.4 0.0
19/04:00pm 19.1 16.7 5.2 40 6.7 ESE 7 15 4 8 1033.2 1033.3 0.0
19/03:30pm 19.0 15.3 4.4 38 7.0 SSE 13 17 7 9 1033.1 1033.2 0.0
19/03:00pm 19.0 16.5 4.7 39 6.8 E 7 15 4 8 1033.4 1033.5 0.0
19/02:30pm 19.1 16.2 4.5 38 7.0 ENE 9 17 5 9 1033.5 1033.6 0.0
19/02:00pm 19.2 15.7 5.6 41 6.6 NNE 13 20 7 11 1033.7 1033.8 0.0
19/01:30pm 18.8 16.5 4.6 39 6.8 NE 6 11 3 6 1034.1 1034.2 0.0
19/01:00pm 18.6 15.3 4.8 40 6.6 NNE 11 17 6 9 1034.7 1034.7 0.0
19/12:30pm 18.5 15.4 5.7 43 6.3 ENE 11 20 6 11 1035.1 1035.1 0.0
19/12:00pm 17.8 14.8 7.5 51 5.2 NE 13 24 7 13 1035.7 1035.7 0.0
19/11:30am 17.3 12.7 6.5 49 5.3 NE 20 26 11 14 1036.0 1036.0 0.0
19/11:00am 16.7 12.6 6.2 50 5.1 NE 17 26 9 14 1036.4 1036.4 0.0
19/10:30am 16.2 12.6 8.2 59 4.1 ENE 17 24 9 13 1036.7 1036.7 0.0
19/10:00am 14.7 12.2 8.0 64 3.3 E 11 19 6 10 1036.7 1036.7 0.0
19/09:30am 14.0 11.8 8.0 67 3.0 E 9 11 5 6 1037.0 1037.0 0.0
19/09:00am 12.4 10.4 8.7 78 1.8 E 9 13 5 7 1037.2 1037.2 0.0
19/08:30am 9.5 7.7 7.8 89 0.8 E 7 9 4 5 1037.2 1037.2 0.0
19/08:00am 7.9 6.5 7.3 96 0.3 ESE 4 7 2 4 1037.0 1037.0 0.0
19/07:30am 5.8 3.5 5.5 98 0.1 E 7 9 4 5 1036.7 1036.7 0.0
19/07:00am 4.4 1.1 4.3 99 0.0 E 11 13 6 7 1036.2 1036.2 0.0
19/06:30am 3.8 1.1 3.7 99 0.0 SE 7 9 4 5 1036.0 1036.0 0.0
19/06:00am 3.6 2.2 3.5 99 0.0 CALM 0 0 0 0 1035.7 1035.7 0.0
19/05:30am 4.2 2.9 3.9 98 0.1 CALM 0 0 0 0 1035.4 1035.4 0.0
19/05:00am 4.0 2.6 3.7 98 0.1 CALM 0 6 0 3 1035.2 1035.2 0.0
19/04:30am 4.7 2.7 4.6 99 0.0 ESE 4 7 2 4 1034.8 1034.8 0.0
19/04:00am 3.6 2.2 3.5 99 0.0 CALM 0 0 0 0 1034.4 1034.5 0.0
19/03:30am 4.3 3.0 4.2 99 0.0 CALM 0 0 0 0 1034.8 1034.8 0.0
19/03:00am 4.3 3.0 4.0 98 0.1 CALM 0 0 0 0 1035.0 1035.0 0.0
19/02:30am 4.9 3.7 4.6 98 0.1 CALM 0 0 0 0 1035.1 1035.1 0.0
19/02:00am 4.5 3.2 4.1 97 0.2 CALM 0 0 0 0 1035.3 1035.3 0.0
19/01:30am 5.3 4.2 5.0 98 0.1 CALM 0 0 0 0 1035.2 1035.2 0.0
19/01:00am 5.5 4.4 5.1 97 0.2 CALM 0 0 0 0 1035.0 1035.0 0.0
19/12:30am 5.6 4.5 5.0 96 0.3 CALM 0 0 0 0 1035.1 1035.1 0.0
19/12:00am 6.5 5.6 5.9 96 0.3 CALM 0 0 0 0 1035.2 1035.2 0.0
 
Date/Time
WST
Temp
°C
App
Temp
°C
Dew
Point
°C
Rel
Hum
%
Delta-T
°C
Wind Press
QNH
hPa
Press
MSL
hPa
Rain since
9am
mm
Dir  Spd
km/h
Gust
km/h
Spd
kts
Gust
kts
18/11:30pm 6.9 4.9 6.3 96 0.3 SE 6 7 3 4 1035.3 1035.3 0.0
18/11:00pm 6.8 6.0 6.4 97 0.2 CALM 0 0 0 0 1035.2 1035.2 0.0
18/10:30pm 7.1 6.3 6.4 95 0.3 CALM 0 0 0 0 1035.2 1035.2 0.0
18/10:00pm 7.3 5.3 6.2 93 0.5 ESE 6 7 3 4 1035.2 1035.2 0.0
18/09:30pm 9.1 8.1 7.2 88 0.9 ESE 2 7 1 4 1035.1 1035.1 0.0
18/09:00pm 10.2 8.6 7.8 85 1.1 SE 6 9 3 5 1034.9 1034.9 0.0
18/08:30pm 9.8 7.9 7.6 86 1.1 SSE 7 9 4 5 1034.6 1034.6 0.0
18/08:00pm 11.2 9.6 8.2 82 1.5 S 6 9 3 5 1034.1 1034.2 0.0
18/07:30pm 11.9 10.2 8.2 78 1.8 S 7 11 4 6 1034.0 1034.1 0.0
18/07:00pm 13.2 10.4 8.7 74 2.2 S 13 17 7 9 1033.7 1033.8 0.0
18/06:30pm 14.0 11.6 8.6 70 2.7 S 11 19 6 10 1033.3 1033.4 0.0
18/06:00pm 13.9 11.8 8.3 69 2.8 SE 9 11 5 6 1032.9 1033.0 0.0
18/05:30pm 15.7 13.1 7.7 59 4.0 SSE 11 13 6 7 1032.7 1032.8 0.0
18/05:00pm 16.7 13.5 6.8 52 4.9 S 13 17 7 9 1032.6 1032.7 0.0
18/04:30pm 16.9 14.7 6.4 50 5.2 S 7 9 4 5 1032.5 1032.6 0.0
18/04:00pm 17.6 14.3 6.2 47 5.6 SSE 13 17 7 9 1032.3 1032.4 0.0
18/03:30pm 17.5 14.6 6.4 48 5.5 SE 11 19 6 10 1032.3 1032.4 0.0
18/03:00pm 17.1 14.7 6.9 51 5.0 SE 9 13 5 7 1032.4 1032.5 0.0
18/02:30pm 17.6 15.1 6.5 48 5.5 SSE 9 17 5 9 1032.4 1032.5 0.0
18/02:00pm 16.5 13.2 6.3 51 4.9 SSE 13 20 7 11 1032.5 1032.6 0.0
18/01:30pm 16.6 13.4 6.7 52 4.9 S 13 20 7 11 1032.7 1032.8 0.0
18/01:00pm 16.1 12.4 6.5 53 4.7 S 15 22 8 12 1032.9 1033.0 0.0
18/12:30pm 15.7 12.5 7.0 56 4.3 S 13 20 7 11 1033.3 1033.4 0.0
18/12:00pm 15.8 11.7 6.3 53 4.6 SSE 17 26 9 14 1033.5 1033.6 0.0
18/11:30am 15.8 12.5 6.5 54 4.5 SE 13 20 7 11 1033.7 1033.8 0.0
18/11:00am 15.3 11.4 7.3 59 3.9 SSE 17 24 9 13 1033.9 1034.0 0.0
18/10:30am 14.7 12.2 8.2 65 3.3 SE 11 17 6 9 1033.9 1034.0 0.0
18/10:00am 13.6 11.3 7.6 67 2.9 ESE 9 13 5 7 1034.1 1034.2 0.0
18/09:30am 12.6 10.5 8.1 74 2.2 SE 9 11 5 6 1033.9 1034.0 0.0
18/09:00am 10.3 10.0 8.7 90 0.8 CALM 0 0 0 0 1033.7 1033.8 0.2
18/08:30am 8.1 7.5 7.5 96 0.3 CALM 0 0 0 0 1033.4 1033.5 0.2
18/08:00am 6.6 5.8 6.6 100 0.0 CALM 0 0 0 0 1033.0 1033.1 0.2
18/07:30am 3.7 2.3 3.7 100 0.0 CALM 0 0 0 0 1032.6 1032.7 0.2
18/07:00am 2.0 0.3 1.9 99 0.0 CALM 0 0 0 0 1032.1 1032.2 0.2
18/06:30am 2.2 0.5 2.1 99 0.0 CALM 0 0 0 0 1031.7 1031.8 0.2
18/06:00am 2.4 0.8 2.3 99 0.0 CALM 0 0 0 0 1031.5 1031.6 0.2
18/05:30am 3.0 1.5 2.9 99 0.0 CALM 0 0 0 0 1031.2 1031.3 0.2
18/05:00am 3.3 1.8 3.2 99 0.0 CALM 0 0 0 0 1031.0 1031.1 0.2
18/04:30am 3.2 1.7 3.1 99 0.0 CALM 0 0 0 0 1030.9 1031.0 0.2
18/04:00am 3.2 1.7 3.1 99 0.0 CALM 0 0 0 0 1031.0 1031.1 0.2
18/03:30am 3.8 2.4 3.7 99 0.0 CALM 0 0 0 0 1030.9 1031.0 0.2
18/03:00am 3.7 2.3 3.6 99 0.0 CALM 0 0 0 0 1030.7 1030.8 0.2
18/02:30am 3.6 2.2 3.5 99 0.0 CALM 0 0 0 0 1030.9 1031.0 0.2
18/02:00am 3.9 2.5 3.8 99 0.0 CALM 0 0 0 0 1030.9 1031.0 0.2
18/01:30am 4.2 2.9 4.1 99 0.0 CALM 0 0 0 0 1030.9 1031.0 0.2
18/01:00am 4.7 2.4 4.6 99 0.0 E 6 7 3 4 1030.7 1030.8 0.2
18/12:30am 5.0 3.8 4.7 98 0.1 CALM 0 0 0 0 1030.7 1030.8 0.2
18/12:00am 5.0 3.8 4.7 98 0.1 CALM 0 0 0 0 1030.6 1030.7 0.2
 
Date/Time
WST
Temp
°C
App
Temp
°C
Dew
Point
°C
Rel
Hum
%
Delta-T
°C
Wind Press
QNH
hPa
Press
MSL
hPa
Rain since
9am
mm
Dir  Spd
km/h
Gust
km/h
Spd
kts
Gust
kts
17/11:30pm 5.6 4.5 5.3 98 0.1 CALM 0 0 0 0 1030.6 1030.7 0.2
17/11:00pm 6.3 5.4 6.0 98 0.1 CALM 0 0 0 0 1030.5 1030.6 0.2
17/10:30pm 6.0 3.6 5.4 96 0.3 ESE 7 9 4 5 1030.4 1030.5 0.2
17/10:00pm 7.1 5.5 6.5 96 0.3 ESE 4 6 2 3 1030.2 1030.3 0.2
17/09:30pm 7.2 5.0 6.1 93 0.5 ESE 7 9 4 5 1030.2 1030.3 0.2
17/09:00pm 9.6 7.8 8.0 90 0.8 SSW 7 9 4 5 1029.8 1029.8 0.2
17/08:30pm 10.0 7.9 8.3 89 0.8 SW 9 11 5 6 1029.5 1029.5 0.2
17/08:00pm 10.6 8.1 8.0 84 1.3 SW 11 15 6 8 1029.3 1029.3 0.2
17/07:30pm 10.9 8.8 6.8 76 1.9 SSW 7 9 4 5 1029.1 1029.1 0.2
17/07:00pm 11.7 8.8 6.4 70 2.5 SSW 11 13 6 7 1028.7 1028.7 0.2
17/06:30pm 12.2 9.1 5.4 63 3.2 SSW 11 17 6 9 1028.4 1028.4 0.2
17/06:00pm 12.8 9.2 4.8 58 3.7 S 13 17 7 9 1028.3 1028.3 0.2
17/05:30pm 13.3 8.9 5.0 57 3.9 SSW 17 24 9 13 1028.0 1028.0 0.2
17/05:00pm 14.1 7.9 4.1 51 4.5 SSW 26 35 14 19 1027.6 1027.6 0.2
17/04:30pm 14.2 9.4 7.3 63 3.4 SSW 22 30 12 16 1027.4 1027.4 0.2
17/04:00pm 14.1 8.2 7.6 65 3.2 SSW 28 37 15 20 1027.1 1027.1 0.2
17/03:30pm 14.1 9.3 7.4 64 3.3 SSW 22 37 12 20 1026.9 1026.9 0.2
17/03:00pm 13.5 8.8 7.7 68 2.8 SW 22 33 12 18 1026.8 1026.8 0.2
17/02:30pm 12.2 6.6 10.1 87 1.1 SW 30 37 16 20 1026.8 1026.8 0.2
17/02:00pm 14.0 7.0 5.9 58 3.8 SW 32 41 17 22 1026.3 1026.3 0.0
17/01:30pm 14.7 8.7 5.2 53 4.5 SSW 26 35 14 19 1026.1 1026.1 0.0
17/01:00pm 14.2 9.1 5.8 57 4.0 SSW 22 30 12 16 1026.1 1026.1 0.0
17/12:30pm 14.4 7.6 5.2 54 4.3 SSW 30 43 16 23 1025.9 1025.9 0.0
17/12:00pm 14.5 9.5 6.3 58 3.9 SSW 22 30 12 16 1025.9 1025.9 0.0
17/11:30am 13.3 7.4 7.3 67 2.9 S 28 43 15 23 1026.0 1026.0 0.0
17/11:00am 12.0 7.8 8.1 77 1.9 SW 20 32 11 17 1026.1 1026.1 0.0
17/10:30am 13.5 9.3 7.5 67 2.9 S 19 24 10 13 1025.8 1025.8 0.0
17/10:00am 12.5 8.6 7.2 70 2.5 S 17 24 9 13 1025.7 1025.7 0.0
17/09:30am 11.6 8.2 7.7 77 1.9 S 15 20 8 11 1025.2 1025.2 0.0
17/09:00am 11.1 8.5 7.8 80 1.6 SSE 11 17 6 9 1024.9 1024.9 25.6
17/08:30am 10.3 9.1 8.2 87 1.0 ESE 4 9 2 5 1024.4 1024.4 25.6
17/08:00am 8.2 7.4 8.1 99 0.0 ESE 2 7 1 4 1023.8 1023.8 25.6
17/07:30am 7.2 6.5 7.1 99 0.0 CALM 0 0 0 0 1023.1 1023.1 25.6
17/07:00am 6.4 4.2 6.1 98 0.1 ESE 7 9 4 5 1022.6 1022.6 25.4
17/06:30am 7.0 4.1 6.6 97 0.2 ESE 11 15 6 8 1022.1 1022.1 25.4
17/06:00am 8.1 5.4 7.2 94 0.4 S 11 17 6 9 1021.6 1021.6 25.4
17/05:30am 8.3 4.8 7.2 93 0.5 SSE 15 20 8 11 1021.1 1021.1 25.2
17/05:00am 7.7 5.7 6.3 91 0.6 SSW 6 9 3 5 1020.7 1020.7 25.2
17/04:30am 8.2 5.8 7.0 92 0.6 S 9 13 5 7 1020.7 1020.7 25.0
17/04:00am 8.8 3.9 7.1 89 0.8 SSW 22 32 12 17 1020.3 1020.3 25.0
17/03:54am 9.0 3.0 7.1 88 0.9 SSW 28 35 15 19 1020.3 1020.3 25.0
17/03:30am 8.0 6.2 7.2 95 0.4 SSW 6 7 3 4 1020.0 1020.0 25.0
17/03:00am 8.5 5.5 7.6 94 0.4 S 13 17 7 9 1020.2 1020.2 25.0
17/02:30am 9.0 4.3 7.6 91 0.7 SSE 22 32 12 17 1020.0 1020.0 24.8
17/02:00am 9.2 4.8 7.6 90 0.8 S 20 32 11 17 1019.8 1019.8 24.6
17/01:30am 8.0 6.5 6.8 92 0.6 SSE 4 7 2 4 1019.1 1019.1 23.8
17/01:00am 9.0 5.1 7.3 89 0.8 S 17 26 9 14 1019.2 1019.2 23.8
17/12:30am 9.7 3.9 7.8 88 0.9 S 28 43 15 23 1018.5 1018.5 23.4
17/12:05am 10.4 2.2 8.2 86 1.1 SSW 41 59 22 32 1018.1 1018.1 23.2
17/12:00am 10.5 1.8 8.3 86 1.1 SW 44 61 24 33 1018.1 1018.1 23.2
 
Date/Time
WST
Temp
°C
App
Temp
°C
Dew
Point
°C
Rel
Hum
%
Delta-T
°C
Wind Press
QNH
hPa
Press
MSL
hPa
Rain since
9am
mm
Dir  Spd
km/h
Gust
km/h
Spd
kts
Gust
kts
16/11:42pm 12.1 6.1 7.0 71 2.4 WSW 28 50 15 27 1017.3 1017.3 23.0
16/11:30pm 11.6 5.1 6.5 71 2.4 SW 30 39 16 21 1017.3 1017.3 23.0
16/11:26pm 11.6 4.8 6.7 72 2.3 SW 32 50 17 27 1017.3 1017.3 23.0
16/11:00pm 11.0 4.4 7.7 80 1.6 WSW 32 43 17 23 1017.2 1017.2 23.0
16/10:47pm 10.7 4.1 7.8 82 1.4 WSW 32 46 17 25 1016.9 1016.9 23.0
16/10:30pm 9.3 -0.4 7.7 90 0.8 WSW 48 69 26 37 1016.9 1016.9 23.0
16/10:27pm 9.3 0.3 7.4 88 0.9 WSW 44 69 24 37 1017.0 1017.0 22.6
16/10:25pm 10.2 1.4 7.4 83 1.3 WSW 43 69 23 37 1017.3 1017.3 21.6
16/10:08pm 11.1 5.4 8.5 84 1.3 WSW 28 46 15 25 1016.0 1016.0 21.0
16/10:06pm 11.1 4.6 8.3 83 1.4 WSW 32 48 17 26 1016.0 1016.0 21.0
16/10:04pm 10.9 4.2 8.3 84 1.3 WSW 33 52 18 28 1016.1 1016.1 21.0
16/10:00pm 10.9 2.7 8.0 82 1.4 WSW 41 57 22 31 1016.3 1016.3 21.0
16/09:53pm 10.9 2.3 8.0 82 1.4 WSW 43 70 23 38 1016.3 1016.3 20.8
16/09:30pm 12.5 6.0 8.2 75 2.1 WSW 32 57 17 31 1015.5 1015.5 20.2
16/09:16pm 12.2 3.5 7.7 74 2.2 WSW 43 72 23 39 1015.3 1015.3 20.2
16/09:14pm 12.3 4.9 8.2 76 2.0 WSW 37 72 20 39 1015.2 1015.2 20.2
16/09:13pm 12.4 5.8 8.5 77 1.9 W 33 72 18 39 1015.4 1015.4 20.2
16/09:11pm 12.4 6.8 8.9 79 1.8 W 28 46 15 25 1015.2 1015.2 20.0
16/09:00pm 11.7 6.4 8.4 80 1.6 W 26 35 14 19 1015.1 1015.1 20.0
16/08:57pm 11.6 5.8 7.9 78 1.8 W 28 48 15 26 1015.0 1015.0 20.0
16/08:38pm 12.3 6.8 9.1 81 1.6 WSW 28 59 15 32 1014.7 1014.7 19.8
16/08:37pm 12.3 7.2 9.1 81 1.6 WSW 26 41 14 22 1015.0 1015.0 19.8
16/08:30pm 11.8 7.9 9.5 86 1.2 W 20 30 11 16 1014.5 1014.5 19.6
16/08:11pm 10.9 7.4 10.1 95 0.4 WSW 19 28 10 15 1015.1 1015.1 19.6
16/08:05pm 10.7 5.4 9.9 95 0.4 WSW 28 46 15 25 1015.0 1015.0 19.4

Latest Capital City Observations: Canberra | Sydney | Melbourne | Brisbane | Adelaide | Perth | Hobart | Darwin

Other formats

Comma delimited format used in spreadsheet applications
http://www.bom.gov.au/fwo/IDW60901/IDW60901.94609.axf

JavaScript Object Notation format (JSON) in row-major order
http://www.bom.gov.au/fwo/IDW60901/IDW60901.94609.json

Data quality

Most of these data are generated automatically and are frequently updated. Quality checks on data are not normally performed. It is possible for incorrect values to appear. Refer to information at About Latest Weather Observations and please check the disclaimer before using these data.